Main page
METAR-TAF:

METAR-TAF

Airports :

RAF Valley

Valley, Wales

latitude: 53-15N, longitude: 004-32W, elevation: 1 m

Current weather observation

The report was made 36 minutes ago, at 18:50 UTC
Wind 2 kt from the West/Southwest
Temperature 14°C
Humidity 88%
Pressure 1015 hPa
Visibility 10 km or more

METAR: EGOV 211850Z AUTO 25002KT 9999 NCD 14/12 Q1015

Time: 20:26 (19:26 UTC)

Forecast

The report was made 5 hours and 35 minutes ago, at 13:51 UTC
Forecast valid from 21 at 15 UTC to 21 at 19 UTC
Wind 7 kt from the West
Visibility 10 km or more
no clouds below 1500 m and no cumulonimbus

TAF: EGOV 211351Z 2115/2119 26007KT CAVOK

Weather observations and forecasts of more than 4000 airports (METAR and TAF reports).

The available stations are represented by yellow and red dots on the map.

Hover mouse over dot to see the name of the station.

Then click to see weather observations and forecasts.

To change the map : click on the green buttons with a black cross to zoom in, on the green button with a dash to zoom out, or on the green arrows for adjacent maps.


METAR-TAF: